Time;durP1;ratioP1;P1;durP2;ratioP2;P2;SDS_P1;SDS_P2;PMS_P1;PMS_P2;Temp;Humidity;BMP_temperature;BMP_pressure;BME280_temperature;BME280_humidity;BME280_pressure;Samples;Min_cycle;Max_cycle;Signal;HPM_P1;HPM_P2
2023/02/15 00:02:06;;;;;;;47.03;42.43;;;2.10;99.90;;;;;;5014936;28;20436;-72
2023/02/15 00:04:50;;;;;;;42.27;38.13;;;2.10;99.90;;;;;;5015134;28;20450;-72
2023/02/15 00:07:20;;;;;;;38.30;34.70;;;2.10;99.90;;;;;;5015637;28;20505;-71
2023/02/15 00:09:48;;;;;;;41.50;37.40;;;2.00;99.90;;;;;;5015200;28;20476;-72
2023/02/15 00:12:17;;;;;;;38.43;34.87;;;2.00;99.90;;;;;;4996487;28;20456;-71
2023/02/15 00:14:45;;;;;;;41.77;37.53;;;2.00;99.90;;;;;;5014940;28;20499;-72
2023/02/15 00:17:13;;;;;;;39.70;35.70;;;2.00;99.90;;;;;;5014586;28;20439;-71
2023/02/15 00:19:41;;;;;;;42.07;38.03;;;2.00;99.90;;;;;;4997093;28;21016;-71
2023/02/15 00:22:09;;;;;;;39.43;35.63;;;1.90;99.90;;;;;;4996879;28;20541;-71
2023/02/15 00:24:39;;;;;;;42.13;37.93;;;1.90;99.90;;;;;;5014756;28;20441;-71
2023/02/15 00:27:08;;;;;;;41.80;37.40;;;1.90;99.90;;;;;;4996820;28;20446;-71
2023/02/15 00:29:36;;;;;;;41.17;37.00;;;1.90;99.90;;;;;;5014302;28;21073;-71
2023/02/15 00:32:05;;;;;;;40.30;36.33;;;1.90;99.90;;;;;;4996799;28;20449;-71
2023/02/15 00:34:34;;;;;;;42.33;38.13;;;1.80;99.90;;;;;;4996904;28;20463;-71
2023/02/15 00:37:02;;;;;;;41.27;36.97;;;1.80;99.90;;;;;;4996583;28;20446;-70
2023/02/15 00:39:30;;;;;;;42.13;37.93;;;1.80;99.90;;;;;;4996533;28;20737;-71
2023/02/15 00:42:00;;;;;;;47.67;42.67;;;1.80;99.90;;;;;;5014163;28;20447;-70
2023/02/15 00:44:28;;;;;;;47.00;41.87;;;1.80;99.90;;;;;;4996580;28;20503;-71
2023/02/15 00:46:57;;;;;;;50.10;42.10;;;1.70;99.90;;;;;;4996993;28;20480;-71
2023/02/15 00:49:25;;;;;;;46.37;40.43;;;1.80;99.90;;;;;;4996330;28;20499;-71
2023/02/15 00:51:54;;;;;;;50.67;45.27;;;1.80;99.90;;;;;;5014574;28;20439;-71
2023/02/15 00:54:22;;;;;;;47.73;42.50;;;1.80;99.90;;;;;;5014266;28;20447;-71
2023/02/15 00:56:50;;;;;;;49.23;43.67;;;1.80;99.90;;;;;;4996291;28;20528;-71
2023/02/15 00:59:20;;;;;;;49.43;43.60;;;1.80;99.90;;;;;;4996186;28;20469;-71
2023/02/15 01:01:48;;;;;;;53.37;46.20;;;1.70;99.90;;;;;;4996306;28;20454;-71
2023/02/15 01:04:16;;;;;;;55.13;45.60;;;1.70;99.90;;;;;;4996291;28;20450;-71
2023/02/15 01:06:44;;;;;;;56.33;46.33;;;1.80;99.90;;;;;;5013938;28;20439;-71
2023/02/15 01:09:13;;;;;;;45.83;40.37;;;1.70;99.90;;;;;;4996011;28;20848;-71
2023/02/15 01:11:41;;;;;;;52.67;45.40;;;1.70;99.90;;;;;;5013771;28;20490;-71
2023/02/15 01:14:09;;;;;;;49.90;42.80;;;1.70;99.90;;;;;;5013822;28;20845;-71
2023/02/15 01:16:40;;;;;;;47.50;42.70;;;1.70;99.90;;;;;;5014075;28;20444;-71
2023/02/15 01:19:08;;;;;;;47.00;41.50;;;1.70;99.90;;;;;;4996244;28;20531;-71
2023/02/15 01:21:36;;;;;;;45.47;40.47;;;1.70;99.90;;;;;;4996254;28;20448;-71
2023/02/15 01:24:04;;;;;;;118.83;45.97;;;1.70;99.90;;;;;;4995917;28;20468;-71
2023/02/15 01:26:32;;;;;;;46.30;39.40;;;1.70;99.90;;;;;;4995944;28;20455;-71
2023/02/15 01:29:00;;;;;;;40.47;36.07;;;1.70;99.90;;;;;;4995772;28;20452;-71
2023/02/15 01:31:28;;;;;;;44.77;38.30;;;1.70;99.90;;;;;;4995853;28;20473;-71
2023/02/15 01:33:58;;;;;;;42.13;34.80;;;1.70;99.90;;;;;;4995820;28;20524;-71
2023/02/15 01:36:26;;;;;;;45.00;35.53;;;1.70;99.90;;;;;;4995808;28;20444;-71
2023/02/15 01:38:54;;;;;;;38.70;34.70;;;1.70;99.90;;;;;;4995823;28;20450;-71
2023/02/15 01:41:26;;;;;;;35.93;32.13;;;1.70;99.90;;;;;;4995703;28;20505;-71
2023/02/15 01:43:56;;;;;;;35.03;31.53;;;1.70;99.90;;;;;;4996039;28;20536;-71
2023/02/15 01:46:31;;;;;;;33.83;30.40;;;1.70;99.90;;;;;;4995805;28;20476;-71
2023/02/15 01:49:07;;;;;;;34.37;29.60;;;1.70;99.90;;;;;;5013401;28;20424;-72
2023/02/15 01:51:38;;;;;;;33.80;29.90;;;1.70;99.90;;;;;;4995639;28;20496;-71
2023/02/15 01:54:11;;;;;;;35.73;32.13;;;1.70;99.90;;;;;;5013819;28;20430;-72
2023/02/15 01:56:41;;;;;;;33.43;29.43;;;1.70;99.90;;;;;;5013724;28;20427;-71
2023/02/15 01:59:14;;;;;;;31.50;26.37;;;1.70;99.90;;;;;;4995527;28;20440;-72
2023/02/15 02:01:42;;;;;;;36.73;30.53;;;1.70;99.90;;;;;;5013041;28;20543;-71
2023/02/15 02:04:17;;;;;;;31.40;28.40;;;1.70;99.90;;;;;;4995826;28;21035;-72
2023/02/15 02:06:48;;;;;;;31.47;28.30;;;1.70;99.90;;;;;;4995509;28;20439;-71
2023/02/15 02:09:17;;;;;;;33.23;29.83;;;1.70;99.90;;;;;;4995701;28;20471;-71
2023/02/15 02:11:48;;;;;;;32.93;29.43;;;1.70;99.90;;;;;;4995344;28;20474;-71
2023/02/15 02:14:18;;;;;;;32.80;29.60;;;1.70;99.90;;;;;;4995499;28;20531;-72
2023/02/15 02:16:54;;;;;;;32.40;28.33;;;1.70;99.90;;;;;;4995700;28;20555;-71
2023/02/15 02:20:00;;;;;;;33.23;29.90;;;1.70;99.90;;;;;;4995417;28;20997;-71
2023/02/15 02:23:03;;;;;;;35.27;30.53;;;1.70;99.90;;;;;;5008013;28;20468;-71
2023/02/15 02:26:16;;;;;;;30.97;27.87;;;1.70;99.90;;;;;;4995412;28;20522;-72
2023/02/15 02:29:19;;;;;;;31.93;28.47;;;1.70;99.90;;;;;;5006288;28;20544;-72
2023/02/15 02:32:16;;;;;;;31.90;28.27;;;1.70;99.90;;;;;;4992069;28;21061;-71
2023/02/15 02:34:57;;;;;;;34.30;29.63;;;1.70;99.90;;;;;;5012853;28;20944;-71
2023/02/15 02:37:33;;;;;;;29.80;26.60;;;1.70;99.90;;;;;;5016746;28;20765;-71
2023/02/15 02:40:09;;;;;;;27.97;25.20;;;1.70;99.90;;;;;;5016807;28;20507;-71
2023/02/15 02:42:41;;;;;;;26.33;23.73;;;1.70;99.90;;;;;;4998871;28;20447;-71
2023/02/15 02:45:16;;;;;;;28.50;25.63;;;1.60;99.90;;;;;;5016459;28;20428;-72
2023/02/15 02:47:48;;;;;;;37.43;25.97;;;1.70;99.90;;;;;;4998867;28;20435;-71
2023/02/15 02:50:22;;;;;;;37.23;26.43;;;1.70;99.90;;;;;;4998616;28;20530;-71
2023/02/15 02:52:51;;;;;;;33.20;25.83;;;1.70;99.90;;;;;;4998688;28;20490;-72
2023/02/15 02:55:24;;;;;;;38.00;24.90;;;1.60;99.90;;;;;;5016701;28;20535;-71
2023/02/15 02:57:56;;;;;;;27.57;24.63;;;1.60;99.90;;;;;;4998842;28;20804;-71
2023/02/15 03:00:26;;;;;;;32.37;25.60;;;1.60;99.90;;;;;;4998674;28;20467;-71
2023/02/15 03:03:04;;;;;;;27.53;24.00;;;1.60;99.90;;;;;;4998493;28;20445;-71
2023/02/15 03:05:37;;;;;;;36.83;25.60;;;1.60;99.90;;;;;;4998362;28;20515;-71
2023/02/15 03:08:09;;;;;;;30.50;23.63;;;1.60;99.90;;;;;;4998397;28;20805;-71
2023/02/15 03:10:41;;;;;;;38.43;27.47;;;1.60;99.90;;;;;;4998214;28;20570;-71
2023/02/15 03:13:10;;;;;;;36.10;25.77;;;1.60;99.90;;;;;;4998552;28;20859;-71
2023/02/15 03:18:31;;;;;;;33.63;23.10;;;1.50;99.90;;;;;;4998182;28;20852;-71
2023/02/15 03:21:03;;;;;;;30.43;26.33;;;1.50;99.90;;;;;;4997992;28;20511;-71
2023/02/15 03:23:33;;;;;;;26.10;23.30;;;1.50;99.90;;;;;;4998243;28;20452;-71
2023/02/15 03:26:04;;;;;;;36.53;25.83;;;1.50;99.90;;;;;;5015953;28;20436;-71
2023/02/15 03:28:39;;;;;;;26.77;24.37;;;1.50;99.90;;;;;;4997974;28;20449;-71
2023/02/15 03:31:09;;;;;;;25.87;23.47;;;1.50;99.90;;;;;;5015455;28;20475;-71
2023/02/15 03:33:43;;;;;;;27.70;25.17;;;1.50;99.90;;;;;;4997848;28;20921;-71
2023/02/15 03:36:19;;;;;;;29.43;23.67;;;1.50;99.90;;;;;;4998095;28;20455;-71
2023/02/15 03:38:59;;;;;;;43.03;25.10;;;1.50;99.90;;;;;;5016991;28;20431;-71
2023/02/15 03:41:32;;;;;;;26.60;23.73;;;1.50;99.90;;;;;;4998779;28;20443;-71
2023/02/15 03:44:05;;;;;;;25.60;23.07;;;1.50;99.90;;;;;;4997812;28;20448;-71
2023/02/15 03:46:38;;;;;;;36.80;23.80;;;1.50;99.90;;;;;;4997729;28;20444;-71
2023/02/15 03:49:11;;;;;;;28.17;25.37;;;1.40;99.90;;;;;;5015007;28;20424;-71
2023/02/15 03:51:44;;;;;;;30.23;25.23;;;1.40;99.90;;;;;;4997675;28;20468;-71
2023/02/15 03:54:38;;;;;;;30.63;24.60;;;1.40;99.90;;;;;;4997820;28;20433;-71
2023/02/15 04:02:45;;;;;;;27.87;22.80;;;1.40;99.90;;;;;;5014933;28;20430;-71
2023/02/15 04:05:13;;;;;;;28.53;24.63;;;1.40;99.90;;;;;;5015118;28;20430;-71
2023/02/15 04:07:43;;;;;;;28.10;25.10;;;1.30;99.90;;;;;;5015095;28;20450;-71
2023/02/15 04:12:57;;;;;;;26.90;21.10;;;1.30;99.90;;;;;;5016519;28;20487;-71
2023/02/15 04:18:10;;;;;;;38.03;30.37;;;1.30;99.90;;;;;;5016683;28;20896;-71
2023/02/15 04:26:11;;;;;;;36.97;27.60;;;1.30;99.90;;;;;;5015287;28;20791;-71
2023/02/15 04:28:39;;;;;;;36.53;28.63;;;1.30;99.90;;;;;;5014546;28;20439;-71
2023/02/15 04:31:08;;;;;;;32.23;25.93;;;1.20;99.90;;;;;;5014430;28;20994;-71
2023/02/15 04:33:36;;;;;;;35.03;27.80;;;1.20;99.90;;;;;;4997009;28;20876;-71
2023/02/15 04:36:05;;;;;;;30.83;27.10;;;1.20;99.90;;;;;;5014572;28;20436;-71
2023/02/15 04:38:34;;;;;;;38.17;27.20;;;1.20;99.90;;;;;;5014645;28;20466;-71
2023/02/15 04:41:02;;;;;;;28.47;25.57;;;1.20;99.90;;;;;;4996808;28;20472;-71
2023/02/15 04:43:30;;;;;;;45.43;27.20;;;1.20;99.90;;;;;;5014419;28;20436;-71
2023/02/15 04:45:58;;;;;;;32.83;27.00;;;1.20;99.90;;;;;;5014644;28;20469;-71
2023/02/15 04:48:27;;;;;;;28.30;25.37;;;1.10;99.90;;;;;;5014800;28;20505;-71
2023/02/15 04:50:55;;;;;;;27.63;24.80;;;1.20;99.90;;;;;;5014124;28;20963;-71
2023/02/15 04:53:23;;;;;;;28.30;25.50;;;1.10;99.90;;;;;;5014435;28;20444;-71
2023/02/15 04:55:52;;;;;;;28.87;25.07;;;1.10;99.90;;;;;;5014002;28;20444;-70
2023/02/15 04:58:20;;;;;;;28.90;25.90;;;1.10;99.90;;;;;;5013753;28;20438;-71
2023/02/15 05:00:49;;;;;;;24.97;22.47;;;1.10;99.90;;;;;;5014035;28;20466;-71
2023/02/15 05:03:17;;;;;;;30.90;25.67;;;1.10;99.90;;;;;;5014345;28;20447;-70
2023/02/15 05:05:46;;;;;;;26.70;24.00;;;1.10;99.90;;;;;;5014132;28;20471;-71
2023/02/15 05:08:14;;;;;;;28.67;25.60;;;1.10;99.90;;;;;;5014103;28;20461;-70
2023/02/15 05:10:42;;;;;;;63.30;24.10;;;1.10;99.90;;;;;;5013941;28;20518;-71
2023/02/15 05:13:12;;;;;;;38.17;25.10;;;1.10;99.90;;;;;;4996000;28;20853;-70
2023/02/15 05:15:40;;;;;;;44.47;24.93;;;1.00;99.90;;;;;;5013730;28;20443;-70
2023/02/15 05:18:10;;;;;;;36.60;24.60;;;1.10;99.90;;;;;;5014138;28;20455;-70
2023/02/15 05:20:48;;;;;;;25.53;22.60;;;1.00;99.90;;;;;;5013598;28;20464;-70
2023/02/15 05:23:16;;;;;;;41.10;26.00;;;1.00;99.90;;;;;;5013752;28;20475;-70
2023/02/15 05:28:37;;;;;;;26.33;23.50;;;1.00;99.90;;;;;;5013875;28;20431;-70
2023/02/15 05:31:07;;;;;;;29.53;25.90;;;1.00;99.90;;;;;;5013609;28;20583;-70
2023/02/15 05:33:36;;;;;;;31.60;25.67;;;1.00;99.90;;;;;;5013710;28;20463;-70
2023/02/15 05:36:05;;;;;;;28.30;25.30;;;1.00;99.90;;;;;;4996081;28;20441;-70
2023/02/15 05:38:33;;;;;;;29.60;26.40;;;1.00;99.90;;;;;;5013516;28;20472;-70
2023/02/15 05:41:01;;;;;;;28.83;25.93;;;1.00;99.90;;;;;;5013372;28;20460;-70
2023/02/15 05:43:30;;;;;;;30.77;27.57;;;1.00;99.90;;;;;;4995865;28;20439;-70
2023/02/15 05:46:00;;;;;;;29.00;26.00;;;1.00;99.90;;;;;;4996154;28;20459;-70
2023/02/15 05:48:29;;;;;;;30.30;27.33;;;1.00;99.90;;;;;;5013406;28;20429;-70
2023/02/15 05:50:59;;;;;;;33.30;26.60;;;0.90;99.90;;;;;;4995864;28;20460;-70
2023/02/15 05:53:27;;;;;;;33.97;27.83;;;0.90;99.90;;;;;;5015850;28;20532;-70
2023/02/15 05:55:58;;;;;;;35.27;29.43;;;0.90;99.90;;;;;;5014364;28;20444;-70
2023/02/15 05:58:30;;;;;;;33.43;27.43;;;0.90;99.90;;;;;;5013408;28;20428;-70
2023/02/15 06:00:59;;;;;;;26.93;24.00;;;0.90;99.90;;;;;;4998737;28;20464;-71
2023/02/15 06:03:28;;;;;;;28.57;25.60;;;0.90;99.90;;;;;;5017100;28;20445;-70
2023/02/15 06:05:56;;;;;;;32.97;25.30;;;0.90;99.90;;;;;;5013342;28;20435;-70
2023/02/15 06:08:24;;;;;;;32.80;24.67;;;0.80;99.90;;;;;;4995746;28;20455;-71
2023/02/15 06:10:53;;;;;;;26.97;24.43;;;0.80;99.90;;;;;;5014093;28;20471;-71
2023/02/15 06:13:21;;;;;;;32.90;23.40;;;0.80;99.90;;;;;;5016955;28;20517;-71
2023/02/15 06:15:49;;;;;;;27.80;22.70;;;0.80;99.90;;;;;;5017117;28;20804;-71
2023/02/15 06:18:18;;;;;;;24.73;22.07;;;0.80;99.90;;;;;;4999345;28;20445;-71
2023/02/15 06:20:47;;;;;;;27.73;24.17;;;0.80;99.90;;;;;;4999229;28;20482;-71
2023/02/15 06:23:15;;;;;;;28.60;25.50;;;0.80;99.90;;;;;;5017100;28;20934;-71
2023/02/15 06:25:45;;;;;;;25.40;22.70;;;0.80;99.90;;;;;;5016813;28;20470;-71
2023/02/15 06:28:14;;;;;;;27.17;24.47;;;0.70;99.90;;;;;;5017257;28;20910;-71
2023/02/15 06:30:42;;;;;;;27.33;24.77;;;0.70;99.90;;;;;;4999020;28;20475;-71
2023/02/15 06:33:10;;;;;;;29.20;26.20;;;0.70;99.90;;;;;;4999211;28;20473;-71
2023/02/15 06:35:40;;;;;;;32.03;29.00;;;0.70;99.90;;;;;;5016981;28;20455;-71
2023/02/15 06:38:08;;;;;;;36.47;32.73;;;0.70;99.90;;;;;;5016780;28;20442;-71
2023/02/15 06:40:36;;;;;;;30.60;27.47;;;0.70;99.90;;;;;;4999341;28;20491;-71
2023/02/15 06:43:04;;;;;;;27.53;24.87;;;0.70;99.90;;;;;;5017359;28;20428;-71
2023/02/15 06:45:32;;;;;;;28.03;25.13;;;0.70;99.90;;;;;;5017343;28;20489;-71
2023/02/15 06:48:00;;;;;;;30.60;27.67;;;0.70;99.90;;;;;;5017102;28;20442;-71
2023/02/15 06:50:28;;;;;;;29.73;27.00;;;0.70;99.90;;;;;;5016450;28;20498;-71
2023/02/15 06:52:59;;;;;;;32.30;29.20;;;0.70;99.90;;;;;;5016554;28;20868;-71
2023/02/15 06:55:27;;;;;;;35.40;31.90;;;0.70;99.90;;;;;;4999135;28;20432;-71
2023/02/15 06:57:55;;;;;;;31.53;28.63;;;0.70;99.90;;;;;;5016592;28;20440;-71
2023/02/15 07:00:23;;;;;;;32.23;29.00;;;0.70;99.90;;;;;;5016240;28;20834;-71
2023/02/15 07:02:57;;;;;;;32.00;28.90;;;0.70;99.90;;;;;;5016088;28;20432;-71
2023/02/15 07:05:30;;;;;;;29.77;26.80;;;0.60;99.90;;;;;;4998836;28;20432;-71
2023/02/15 07:08:00;;;;;;;31.37;28.37;;;0.60;99.90;;;;;;5016513;28;20427;-71
2023/02/15 07:10:29;;;;;;;33.20;29.87;;;0.60;99.90;;;;;;4998272;28;20467;-71
2023/02/15 07:12:56;;;;;;;27.37;24.67;;;0.60;99.90;;;;;;5015909;28;20495;-71
2023/02/15 07:15:24;;;;;;;27.53;24.50;;;0.60;99.90;;;;;;5016015;28;20468;-71
2023/02/15 07:17:52;;;;;;;27.80;25.20;;;0.60;99.90;;;;;;4998257;28;20466;-71
2023/02/15 07:20:22;;;;;;;28.70;25.90;;;0.60;99.90;;;;;;5016054;28;20892;-71
2023/02/15 07:22:51;;;;;;;28.90;26.00;;;0.60;99.90;;;;;;5015575;28;20542;-71
2023/02/15 07:25:21;;;;;;;31.10;27.87;;;0.60;99.90;;;;;;5016153;28;20771;-71
2023/02/15 07:27:49;;;;;;;30.77;27.63;;;0.60;99.90;;;;;;5015639;28;20446;-71
2023/02/15 07:30:17;;;;;;;30.03;27.17;;;0.60;99.90;;;;;;4998183;28;20460;-71
2023/02/15 07:35:32;;;;;;;27.30;24.70;;;0.70;99.90;;;;;;4998200;28;20437;-71
2023/02/15 07:38:01;;;;;;;34.13;30.43;;;0.70;99.90;;;;;;5015434;28;20444;-71
2023/02/15 07:40:30;;;;;;;32.70;29.50;;;0.70;99.90;;;;;;4997761;28;20496;-71
2023/02/15 07:42:59;;;;;;;28.47;25.40;;;0.80;99.90;;;;;;4997767;28;20444;-71
2023/02/15 07:45:27;;;;;;;29.33;26.47;;;0.80;99.90;;;;;;5015553;28;20428;-70
2023/02/15 07:47:55;;;;;;;29.30;26.27;;;0.80;99.90;;;;;;4997646;28;20456;-71
2023/02/15 07:50:24;;;;;;;30.33;27.20;;;0.80;99.90;;;;;;4997717;28;21002;-71
2023/02/15 07:52:52;;;;;;;30.30;27.20;;;0.90;99.90;;;;;;5015103;28;20512;-71
2023/02/15 07:55:20;;;;;;;30.03;27.30;;;0.90;99.90;;;;;;5015661;28;20433;-71
2023/02/15 07:57:51;;;;;;;28.83;26.00;;;1.00;99.90;;;;;;5015133;28;20440;-71
2023/02/15 08:00:23;;;;;;;29.67;26.87;;;1.00;99.90;;;;;;4997636;28;20477;-71
2023/02/15 08:03:12;;;;;;;29.80;26.90;;;1.00;99.90;;;;;;5015680;28;20428;-71
2023/02/15 08:05:42;;;;;;;29.17;26.27;;;1.00;99.90;;;;;;4997559;28;20444;-71
2023/02/15 08:08:29;;;;;;;33.57;30.60;;;1.10;99.90;;;;;;5014847;28;20436;-71
2023/02/15 08:13:54;;;;;;;30.43;27.63;;;1.20;99.90;;;;;;4997263;28;20823;-71
2023/02/15 08:16:28;;;;;;;31.70;28.60;;;1.20;99.90;;;;;;5014917;28;20462;-71
2023/02/15 08:18:57;;;;;;;32.77;29.57;;;1.30;99.90;;;;;;5014977;28;20439;-71
2023/02/15 08:21:27;;;;;;;33.03;30.13;;;1.40;99.90;;;;;;5014574;28;20507;-71
2023/02/15 08:23:58;;;;;;;33.23;30.13;;;1.40;99.90;;;;;;5015136;28;20923;-71
2023/02/15 08:26:28;;;;;;;34.13;30.83;;;1.50;99.90;;;;;;4997728;28;20452;-71
2023/02/15 08:28:58;;;;;;;35.27;31.80;;;1.60;99.90;;;;;;4996947;28;20456;-71
2023/02/15 08:31:27;;;;;;;36.37;32.87;;;1.60;99.90;;;;;;5014951;28;20772;-71
2023/02/15 08:33:57;;;;;;;35.30;31.87;;;1.70;99.90;;;;;;5013829;28;20511;-71
2023/02/15 08:36:27;;;;;;;35.03;31.63;;;1.70;99.90;;;;;;5014640;28;20437;-71
2023/02/15 08:38:57;;;;;;;35.07;31.70;;;1.80;99.90;;;;;;5014430;28;20444;-71
2023/02/15 08:41:29;;;;;;;34.97;31.70;;;1.90;99.90;;;;;;4996828;28;20468;-71
2023/02/15 08:44:00;;;;;;;36.57;33.07;;;1.90;99.90;;;;;;4996653;28;20532;-71
2023/02/15 08:46:29;;;;;;;37.70;34.20;;;1.90;99.90;;;;;;5014465;28;20421;-72
2023/02/15 08:48:58;;;;;;;37.00;33.40;;;2.00;99.90;;;;;;5014129;28;20523;-72
2023/02/15 08:51:28;;;;;;;36.33;32.83;;;2.00;99.90;;;;;;5014329;28;20436;-72
2023/02/15 08:53:58;;;;;;;37.20;33.40;;;2.00;99.90;;;;;;4996329;28;20874;-72
2023/02/15 08:56:28;;;;;;;38.53;34.93;;;2.10;99.90;;;;;;4996434;28;20452;-72
2023/02/15 08:58:58;;;;;;;39.37;35.53;;;2.20;99.90;;;;;;4996335;28;20457;-72
2023/02/15 09:01:28;;;;;;;43.90;39.60;;;2.20;99.90;;;;;;5013926;28;20937;-72
2023/02/15 09:03:59;;;;;;;43.13;38.83;;;2.30;99.90;;;;;;5014148;28;20790;-72
2023/02/15 09:06:28;;;;;;;42.17;38.00;;;2.30;99.90;;;;;;5014008;28;20423;-72
2023/02/15 09:08:57;;;;;;;42.60;38.60;;;2.40;99.90;;;;;;5013737;28;20440;-72
2023/02/15 09:11:27;;;;;;;43.30;39.10;;;2.40;99.90;;;;;;4996124;28;20987;-72
2023/02/15 09:13:59;;;;;;;42.53;38.60;;;2.50;99.90;;;;;;5013754;28;20576;-72
2023/02/15 09:16:29;;;;;;;40.33;36.43;;;2.50;99.90;;;;;;5013727;28;20468;-72
2023/02/15 09:18:58;;;;;;;42.87;38.67;;;2.60;99.90;;;;;;4996043;28;20971;-72
2023/02/15 09:21:28;;;;;;;42.03;37.83;;;2.60;99.90;;;;;;5013428;28;20480;-72
2023/02/15 09:23:59;;;;;;;42.40;38.20;;;2.70;99.90;;;;;;5013621;28;20468;-72
2023/02/15 09:26:29;;;;;;;42.00;38.00;;;2.80;99.90;;;;;;5013608;28;20952;-73
2023/02/15 09:29:03;;;;;;;45.87;41.37;;;2.80;99.90;;;;;;5013819;28;20463;-73
2023/02/15 09:31:33;;;;;;;44.27;40.07;;;2.90;99.90;;;;;;5013662;28;20520;-73
2023/02/15 09:34:02;;;;;;;45.63;41.47;;;3.00;99.90;;;;;;4995779;28;20554;-72
2023/02/15 09:36:35;;;;;;;43.10;38.80;;;3.10;99.90;;;;;;5013986;28;20445;-72
2023/02/15 09:39:08;;;;;;;44.77;40.40;;;3.20;99.90;;;;;;4995795;28;20444;-72
2023/02/15 09:42:16;;;;;;;43.80;39.50;;;3.20;99.90;;;;;;5013889;28;20435;-72
2023/02/15 09:45:04;;;;;;;46.63;42.03;;;3.30;99.90;;;;;;5013374;28;20431;-72
2023/02/15 09:47:54;;;;;;;46.57;42.07;;;3.30;99.90;;;;;;4999904;28;20436;-72
2023/02/15 09:50:31;;;;;;;46.13;41.77;;;3.40;99.90;;;;;;4999971;28;20471;-72
2023/02/15 09:53:15;;;;;;;48.80;43.90;;;3.50;99.90;;;;;;4999837;28;20561;-72
2023/02/15 09:55:54;;;;;;;47.57;42.73;;;3.60;99.90;;;;;;4999728;28;20478;-72
2023/02/15 09:58:34;;;;;;;48.93;43.97;;;3.60;99.90;;;;;;5017890;28;20418;-72
2023/02/15 10:01:12;;;;;;;50.77;45.80;;;3.70;99.90;;;;;;5017219;28;21039;-72
2023/02/15 10:03:55;;;;;;;49.27;44.37;;;3.80;99.90;;;;;;5017151;28;20424;-71
2023/02/15 10:06:38;;;;;;;51.00;46.07;;;3.90;99.90;;;;;;5017194;28;20435;-72
2023/02/15 10:09:26;;;;;;;49.33;44.80;;;3.90;99.90;;;;;;4999441;28;21022;-73
2023/02/15 10:12:08;;;;;;;49.47;44.93;;;4.00;99.90;;;;;;5017029;28;20455;-73
2023/02/15 10:15:09;;;;;;;50.00;45.30;;;4.10;99.90;;;;;;5016935;28;20455;-71
2023/02/15 10:17:51;;;;;;;47.27;42.83;;;4.20;99.90;;;;;;5017142;28;20535;-73
2023/02/15 10:20:32;;;;;;;51.03;45.97;;;4.20;99.90;;;;;;5017045;28;20962;-71
2023/02/15 10:23:16;;;;;;;50.77;46.10;;;4.30;99.90;;;;;;4997504;28;20447;-73
2023/02/15 10:25:50;;;;;;;52.13;47.23;;;4.40;99.90;;;;;;5017142;28;20424;-71
2023/02/15 10:28:20;;;;;;;49.20;44.63;;;4.50;99.90;;;;;;4999289;28;20432;-71
2023/02/15 10:30:51;;;;;;;49.80;45.13;;;4.60;99.90;;;;;;5016654;28;20459;-71
2023/02/15 10:33:40;;;;;;;49.20;44.80;;;4.60;99.90;;;;;;5017022;28;20898;-71
2023/02/15 10:36:20;;;;;;;51.57;46.87;;;4.70;99.90;;;;;;4998902;28;20599;-73
2023/02/15 10:38:57;;;;;;;52.93;48.23;;;4.80;99.90;;;;;;5016873;28;20898;-71
2023/02/15 10:41:36;;;;;;;51.10;46.30;;;4.90;99.90;;;;;;5016406;28;20459;-71
2023/02/15 10:44:25;;;;;;;53.13;48.33;;;5.00;99.90;;;;;;5017045;28;20775;-71
2023/02/15 10:47:16;;;;;;;53.87;48.57;;;5.00;99.90;;;;;;5015920;28;20462;-73
2023/02/15 10:50:03;;;;;;;55.37;50.37;;;5.10;99.90;;;;;;5016462;28;20509;-73
2023/02/15 10:52:43;;;;;;;55.63;50.33;;;5.20;99.90;;;;;;4998754;28;20457;-73
2023/02/15 10:55:17;;;;;;;52.23;47.70;;;5.30;99.90;;;;;;4999663;28;20533;-71
2023/02/15 10:57:52;;;;;;;52.30;47.67;;;5.40;99.90;;;;;;4998337;28;20942;-71
2023/02/15 11:00:31;;;;;;;54.20;49.30;;;5.50;99.90;;;;;;4998479;28;20474;-72
2023/02/15 11:03:30;;;;;;;50.47;46.07;;;5.60;99.90;;;;;;5016638;28;20440;-73
2023/02/15 11:06:05;;;;;;;52.17;47.27;;;5.70;99.90;;;;;;5016274;28;20427;-73
2023/02/15 11:08:37;;;;;;;53.07;47.97;;;5.70;99.90;;;;;;5016355;28;20929;-73
2023/02/15 11:11:09;;;;;;;53.43;48.67;;;5.80;99.90;;;;;;5015966;28;20468;-73
2023/02/15 11:13:42;;;;;;;53.23;48.47;;;5.90;99.90;;;;;;5015922;28;20973;-73
2023/02/15 11:16:15;;;;;;;51.20;46.67;;;6.00;99.90;;;;;;5016114;28;20878;-73
2023/02/15 11:18:50;;;;;;;54.10;49.00;;;6.10;99.90;;;;;;5016118;28;20956;-73
2023/02/15 11:21:23;;;;;;;50.83;46.23;;;6.20;99.90;;;;;;5015912;28;20464;-73
2023/02/15 11:23:52;;;;;;;53.70;48.90;;;6.20;99.90;;;;;;4998737;28;20862;-71
2023/02/15 11:26:28;;;;;;;54.20;49.40;;;6.30;99.90;;;;;;5015628;28;20470;-71
2023/02/15 11:29:00;;;;;;;53.47;48.67;;;6.40;99.90;;;;;;5015616;28;20424;-71
2023/02/15 11:31:37;;;;;;;54.63;49.53;;;6.50;99.90;;;;;;5015864;28;20429;-71
2023/02/15 11:34:14;;;;;;;52.63;47.93;;;6.60;99.90;;;;;;4997895;28;20439;-71
2023/02/15 11:36:45;;;;;;;55.93;50.70;;;6.60;99.90;;;;;;4998028;28;20475;-71
2023/02/15 11:39:17;;;;;;;54.83;49.80;;;6.70;99.90;;;;;;5015355;28;20834;-71
2023/02/15 11:41:53;;;;;;;53.47;48.57;;;6.80;99.90;;;;;;4998047;28;20442;-71
2023/02/15 11:44:27;;;;;;;52.33;47.63;;;6.90;99.90;;;;;;4997802;28;20466;-71
2023/02/15 11:46:55;;;;;;;53.60;48.60;;;7.00;99.90;;;;;;5015425;28;20435;-71
2023/02/15 11:49:28;;;;;;;52.10;47.20;;;7.10;99.90;;;;;;5015609;28;20457;-71
2023/02/15 11:51:58;;;;;;;51.53;46.90;;;7.10;99.90;;;;;;5015471;28;20492;-71
2023/02/15 11:54:30;;;;;;;49.33;44.63;;;7.20;99.90;;;;;;5015397;28;20923;-71
2023/02/15 11:57:02;;;;;;;51.20;46.37;;;7.30;99.90;;;;;;5015206;28;20835;-71
2023/02/15 11:59:33;;;;;;;49.80;45.20;;;7.30;99.90;;;;;;5015535;28;20461;-71
2023/02/15 12:02:01;;;;;;;49.60;45.00;;;7.40;99.90;;;;;;5015578;28;20811;-71
2023/02/15 12:04:34;;;;;;;51.07;46.17;;;7.40;99.90;;;;;;5014862;28;20445;-71
2023/02/15 12:07:15;;;;;;;48.87;44.27;;;7.50;99.90;;;;;;4997323;28;20974;-71
2023/02/15 12:09:51;;;;;;;47.57;43.33;;;7.50;99.90;;;;;;5014297;28;20476;-71
2023/02/15 12:12:24;;;;;;;48.10;43.50;;;7.60;99.90;;;;;;4997760;28;20871;-72
2023/02/15 12:14:54;;;;;;;49.37;44.70;;;7.70;99.90;;;;;;5014997;28;20425;-71
2023/02/15 12:17:24;;;;;;;50.90;45.77;;;7.70;99.90;;;;;;5014994;28;20433;-71
2023/02/15 12:19:56;;;;;;;50.17;45.43;;;7.80;99.90;;;;;;4997115;28;20475;-72
2023/02/15 12:22:28;;;;;;;50.40;45.70;;;7.90;99.90;;;;;;4996974;28;20548;-72
2023/02/15 12:24:59;;;;;;;51.37;46.60;;;7.90;99.90;;;;;;5014920;28;20780;-71
2023/02/15 12:27:30;;;;;;;50.20;45.43;;;8.00;99.90;;;;;;4996971;28;20539;-71
2023/02/15 12:30:02;;;;;;;49.80;45.30;;;8.10;99.90;;;;;;5014580;28;21034;-71
2023/02/15 12:32:35;;;;;;;50.07;45.27;;;8.10;99.90;;;;;;4996830;28;20447;-71
2023/02/15 12:35:14;;;;;;;48.50;44.10;;;8.20;99.90;;;;;;4996755;28;20534;-70
2023/02/15 12:37:54;;;;;;;50.07;45.47;;;8.30;99.90;;;;;;5014327;28;20894;-70
2023/02/15 12:40:25;;;;;;;48.17;43.57;;;8.30;99.90;;;;;;4996614;28;20481;-69
2023/02/15 12:42:53;;;;;;;50.03;45.23;;;8.40;99.90;;;;;;4996648;28;20829;-70
2023/02/15 12:45:25;;;;;;;54.30;48.93;;;8.50;99.90;;;;;;5014713;28;20494;-70
2023/02/15 12:48:17;;;;;;;51.70;46.70;;;8.50;99.90;;;;;;5014706;28;20426;-70
2023/02/15 12:50:46;;;;;;;51.57;46.53;;;8.60;99.90;;;;;;5014021;28;20510;-70
2023/02/15 12:53:36;;;;;;;54.10;48.90;;;8.70;99.90;;;;;;5014316;28;20451;-70
2023/02/15 12:56:06;;;;;;;50.93;46.10;;;8.80;99.90;;;;;;5014484;28;20456;-70
2023/02/15 12:58:35;;;;;;;49.97;45.33;;;8.80;99.90;;;;;;5014358;28;20482;-70
2023/02/15 13:01:11;;;;;;;52.30;47.30;;;8.90;99.90;;;;;;5014133;28;20809;-70
2023/02/15 13:03:56;;;;;;;49.40;44.80;;;9.00;99.90;;;;;;5014135;28;20873;-70
2023/02/15 13:06:26;;;;;;;48.27;43.77;;;9.10;99.90;;;;;;5014399;28;20423;-70
2023/02/15 13:08:59;;;;;;;51.13;46.00;;;9.10;99.90;;;;;;4996102;28;20462;-70
2023/02/15 13:11:34;;;;;;;51.20;46.10;;;9.20;99.90;;;;;;4996124;28;20575;-70
2023/02/15 13:14:04;;;;;;;49.27;44.43;;;9.30;99.90;;;;;;5014025;28;20423;-70
2023/02/15 13:16:34;;;;;;;51.30;46.17;;;9.40;99.90;;;;;;4995973;28;20472;-70
2023/02/15 13:19:07;;;;;;;51.20;46.17;;;9.40;99.90;;;;;;5013896;28;20420;-70
2023/02/15 13:21:40;;;;;;;49.77;44.87;;;9.50;99.90;;;;;;4996132;28;20548;-70
2023/02/15 13:24:19;;;;;;;48.30;43.47;;;9.50;99.90;;;;;;4995984;28;20479;-70
2023/02/15 13:26:48;;;;;;;51.43;46.53;;;9.60;99.90;;;;;;5014087;28;20424;-70
2023/02/15 13:29:22;;;;;;;46.87;42.33;;;9.60;99.90;;;;;;5013689;28;20431;-70
2023/02/15 13:31:52;;;;;;;45.80;41.30;;;9.60;99.90;;;;;;5013584;28;20458;-70